Climatologie pour Saint-Brevin les Pins
Jour • Résumé pour mars 10, 2017 Système :  Métrique    Anglais   Mixte
« - 1 jour
+ 1 jour »
Jour Semaine Mois Année Personnalisé
  Maximum : Minimum : Moyenne :
Température sous abri : 18.2 °C 3.8 °C 10.2 °C
Point de rosée : 12.3 °C 3.7 °C 8.4 °C
Humidité : 100 % 65 % 90 %
Vitesse du vent : 14.5 km/h 0.0 km/h 2.1 km/h
Rafale : 22.5 km/h - -
Direction :- - SSW
Pression : 1027.0 hPa 1019.9 hPa -
Précipitations : 0.5 mm    
Historical Graphs
 
 
Tableau de données pour mars 10, 2017
Heure Tempé Pt rosée Pression Vent Vitesse Rafale Humidité Taux pluie (/hr) Soleil
00:00 8.8 °C 8.6 °C 1027.0 hPa SW 4.8 km/h 4.8 km/h 99 % 0.0 mm 0 W/m2
00:05 8.7 °C 8.6 °C 1027.0 hPa WSW 1.6 km/h 8.0 km/h 99 % 0.0 mm 0 W/m2
00:10 8.7 °C 8.5 °C 1027.0 hPa West 3.2 km/h 8.0 km/h 99 % 0.0 mm 0 W/m2
00:15 8.6 °C 8.5 °C 1027.0 hPa West 1.6 km/h 6.4 km/h 99 % 0.0 mm 0 W/m2
00:20 8.6 °C 8.4 °C 1027.0 hPa Calm   6.4 km/h 99 % 0.0 mm 0 W/m2
00:25 8.6 °C 8.5 °C 1027.0 hPa Calm   4.8 km/h 99 % 0.0 mm 0 W/m2
00:30 8.7 °C 8.5 °C 1027.0 hPa West 3.2 km/h 4.8 km/h 99 % 0.0 mm 0 W/m2
00:40 8.5 °C 8.4 °C 1027.0 hPa Calm   8.0 km/h 99 % 0.0 mm 0 W/m2
00:45 8.5 °C 8.4 °C 1027.0 hPa WSW 1.6 km/h 8.0 km/h 99 % 0.0 mm 0 W/m2
00:50 8.5 °C 8.4 °C 1027.0 hPa WSW 4.8 km/h 4.8 km/h 99 % 0.0 mm 0 W/m2
00:55 8.5 °C 8.4 °C 1027.0 hPa WSW 4.8 km/h 6.4 km/h 99 % 0.0 mm 0 W/m2
01:00 8.3 °C 8.2 °C 1027.0 hPa WSW 1.6 km/h 6.4 km/h 99 % 0.0 mm 0 W/m2
01:05 8.3 °C 8.1 °C 1027.0 hPa WSW 3.2 km/h 4.8 km/h 99 % 0.0 mm 0 W/m2
01:10 8.3 °C 8.1 °C 1027.0 hPa WSW 1.6 km/h 3.2 km/h 99 % 0.0 mm 0 W/m2
01:15 8.4 °C 8.2 °C 1027.0 hPa WSW 1.6 km/h 4.8 km/h 99 % 0.0 mm 0 W/m2
01:20 8.3 °C 8.1 °C 1027.0 hPa WSW 4.8 km/h 4.8 km/h 99 % 0.0 mm 0 W/m2
01:25 8.3 °C 8.1 °C 1027.0 hPa WSW 1.6 km/h 4.8 km/h 99 % 0.0 mm 0 W/m2
01:30 8.2 °C 8.1 °C 1027.0 hPa Calm   4.8 km/h 99 % 0.0 mm 0 W/m2
01:35 8.3 °C 8.1 °C 1027.0 hPa Calm   1.6 km/h 99 % 0.0 mm 0 W/m2
01:40 8.3 °C 8.1 °C 1027.0 hPa Calm     99 % 0.0 mm 0 W/m2
01:45 8.2 °C 8.1 °C 1027.0 hPa WSW 1.6 km/h 3.2 km/h 99 % 0.0 mm 0 W/m2
01:50 8.1 °C 8.0 °C 1027.0 hPa Calm   4.8 km/h 99 % 0.0 mm 0 W/m2
01:55 8.1 °C 8.0 °C 1027.0 hPa Calm   4.8 km/h 99 % 0.0 mm 0 W/m2
02:00 8.1 °C 8.0 °C 1027.0 hPa Calm   3.2 km/h 99 % 0.0 mm 0 W/m2
02:10 8.1 °C 7.9 °C 1027.0 hPa Calm   3.2 km/h 99 % 0.0 mm 0 W/m2
02:15 8.1 °C 7.9 °C 1027.0 hPa Calm   1.6 km/h 99 % 0.0 mm 0 W/m2
02:20 8.1 °C 8.0 °C 1027.0 hPa Calm     99 % 0.0 mm 0 W/m2
02:25 8.2 °C 8.0 °C 1026.6 hPa Calm   3.2 km/h 99 % 0.0 mm 0 W/m2
02:30 8.1 °C 8.0 °C 1026.6 hPa Calm   3.2 km/h 99 % 0.0 mm 0 W/m2
02:35 8.0 °C 7.9 °C 1026.6 hPa Calm   1.6 km/h 99 % 0.0 mm 0 W/m2
02:40 8.0 °C 7.9 °C 1026.6 hPa Calm   1.6 km/h 99 % 0.0 mm 0 W/m2
02:45 7.9 °C 7.8 °C 1026.6 hPa Calm   1.6 km/h 99 % 0.0 mm 0 W/m2
02:50 7.8 °C 7.7 °C 1026.6 hPa Calm     99 % 0.0 mm 0 W/m2
02:55 7.8 °C 7.7 °C 1026.6 hPa Calm     99 % 0.0 mm 0 W/m2
03:00 7.8 °C 7.6 °C 1026.3 hPa Calm   1.6 km/h 99 % 0.0 mm 0 W/m2
03:05 7.7 °C 7.6 °C 1026.3 hPa Calm   1.6 km/h 99 % 0.0 mm 0 W/m2
03:10 7.7 °C 7.5 °C 1026.3 hPa Calm   1.6 km/h 99 % 0.0 mm 0 W/m2
03:15 7.6 °C 7.4 °C 1026.3 hPa Calm     99 % 0.0 mm 0 W/m2
03:20 7.4 °C 7.3 °C 1026.3 hPa Calm     99 % 0.0 mm 0 W/m2
03:25 7.4 °C 7.3 °C 1026.3 hPa Calm     99 % 0.0 mm 0 W/m2
03:30 7.4 °C 7.2 °C 1026.0 hPa Calm     99 % 0.0 mm 0 W/m2
03:35 7.3 °C 7.2 °C 1026.0 hPa Calm     99 % 0.0 mm 0 W/m2
03:40 7.3 °C 7.1 °C 1026.0 hPa Calm     99 % 0.0 mm 0 W/m2
03:45 7.3 °C 7.1 °C 1026.0 hPa Calm     99 % 0.0 mm 0 W/m2
03:55 7.3 °C 7.2 °C 1026.0 hPa Calm     99 % 0.0 mm 0 W/m2
04:00 7.4 °C 7.2 °C 1026.0 hPa Calm     99 % 0.0 mm 0 W/m2
04:05 7.3 °C 7.2 °C 1025.6 hPa Calm     99 % 0.0 mm 0 W/m2
04:10 7.4 °C 7.2 °C 1026.0 hPa Calm     99 % 0.0 mm 0 W/m2
04:20 7.2 °C 7.1 °C 1025.6 hPa Calm   1.6 km/h 99 % 0.3 mm 0 W/m2
04:25 7.1 °C 7.0 °C 1025.6 hPa Calm   1.6 km/h 99 % 0.3 mm 0 W/m2
04:30 6.9 °C 6.7 °C 1025.6 hPa Calm     99 % 0.3 mm 0 W/m2
04:35 6.7 °C 6.6 °C 1025.6 hPa Calm   1.6 km/h 99 % 0.3 mm 0 W/m2
04:40 6.7 °C 6.5 °C 1025.6 hPa Calm   1.6 km/h 99 % 0.3 mm 0 W/m2
04:45 6.6 °C 6.4 °C 1025.6 hPa SSW 1.6 km/h 4.8 km/h 99 % 0.3 mm 0 W/m2
04:50 6.3 °C 6.2 °C 1025.6 hPa Calm   4.8 km/h 99 % 0.3 mm 0 W/m2
04:55 6.2 °C 6.1 °C 1025.6 hPa SSW 1.6 km/h 4.8 km/h 99 % 0.3 mm 0 W/m2
05:00 6.1 °C 6.0 °C 1025.6 hPa SSW 1.6 km/h 4.8 km/h 99 % 0.3 mm 0 W/m2
05:10 5.8 °C 5.6 °C 1025.6 hPa Calm   4.8 km/h 99 % 0.3 mm 0 W/m2
05:15 5.8 °C 5.7 °C 1025.6 hPa Calm   4.8 km/h 99 % 0.0 mm 0 W/m2
05:20 5.9 °C 5.7 °C 1025.6 hPa Calm   4.8 km/h 99 % 0.0 mm 0 W/m2
05:25 5.8 °C 5.7 °C 1025.6 hPa Calm   3.2 km/h 99 % 0.0 mm 0 W/m2
05:30 5.9 °C 5.8 °C 1025.6 hPa Calm   3.2 km/h 99 % 0.0 mm 0 W/m2
05:35 6.0 °C 5.9 °C 1025.6 hPa Calm   3.2 km/h 99 % 0.0 mm 0 W/m2
05:40 6.1 °C 5.9 °C 1025.6 hPa Calm   3.2 km/h 99 % 0.0 mm 0 W/m2
05:45 6.2 °C 6.0 °C 1025.6 hPa Calm   3.2 km/h 99 % 0.0 mm 0 W/m2
05:50 6.2 °C 6.0 °C 1025.3 hPa Calm   1.6 km/h 99 % 0.0 mm 0 W/m2
05:55 6.2 °C 6.1 °C 1025.6 hPa Calm   1.6 km/h 99 % 0.0 mm 0 W/m2
06:00 6.2 °C 6.0 °C 1025.6 hPa Calm   1.6 km/h 99 % 0.0 mm 0 W/m2
06:05 6.1 °C 5.9 °C 1025.6 hPa SE 1.6 km/h 1.6 km/h 99 % 0.0 mm 0 W/m2
06:10 6.0 °C 5.9 °C 1025.3 hPa Calm   3.2 km/h 99 % 0.0 mm 0 W/m2
06:15 5.8 °C 5.6 °C 1025.3 hPa SE 1.6 km/h 3.2 km/h 99 % 0.0 mm 0 W/m2
06:25 5.4 °C 5.3 °C 1025.3 hPa ESE 1.6 km/h 4.8 km/h 99 % 0.0 mm 0 W/m2
06:30 5.4 °C 5.2 °C 1025.3 hPa ESE 1.6 km/h 3.2 km/h 99 % 0.0 mm 0 W/m2
06:35 5.3 °C 5.1 °C 1025.3 hPa ESE 1.6 km/h 3.2 km/h 99 % 0.0 mm 0 W/m2
06:40 5.1 °C 5.0 °C 1025.3 hPa Calm   4.8 km/h 99 % 0.0 mm 0 W/m2
06:45 4.9 °C 4.7 °C 1025.3 hPa Calm   4.8 km/h 99 % 0.0 mm 0 W/m2
06:50 4.8 °C 4.7 °C 1025.3 hPa Calm   8.0 km/h 99 % 0.0 mm 0 W/m2
06:55 4.7 °C 4.6 °C 1025.3 hPa Calm   8.0 km/h 99 % 0.0 mm 0 W/m2
07:00 4.6 °C 4.5 °C 1025.3 hPa Calm   4.8 km/h 99 % 0.0 mm 0 W/m2
07:05 4.5 °C 4.4 °C 1025.3 hPa Calm   4.8 km/h 99 % 0.0 mm 0 W/m2
07:10 4.4 °C 4.2 °C 1025.3 hPa Calm   3.2 km/h 99 % 0.0 mm 0 W/m2
07:15 4.3 °C 4.1 °C 1025.3 hPa Calm   1.6 km/h 99 % 0.0 mm 0 W/m2
07:20 4.3 °C 4.1 °C 1025.3 hPa ESE 1.6 km/h 1.6 km/h 99 % 0.0 mm 0 W/m2
07:25 4.1 °C 3.9 °C 1025.3 hPa Calm   4.8 km/h 99 % 0.0 mm 0 W/m2
07:30 4.1 °C 4.0 °C 1025.3 hPa Calm   4.8 km/h 99 % 0.0 mm 0 W/m2
07:35 4.1 °C 3.9 °C 1025.3 hPa Calm   1.6 km/h 99 % 0.0 mm 5 W/m2
07:40 4.1 °C 3.9 °C 1025.3 hPa ESE 1.6 km/h 3.2 km/h 99 % 0.0 mm 7 W/m2
07:45 3.9 °C 3.8 °C 1025.3 hPa ESE 1.6 km/h 3.2 km/h 99 % 0.0 mm 11 W/m2
07:50 3.9 °C 3.8 °C 1025.3 hPa Calm   3.2 km/h 99 % 0.0 mm 14 W/m2
07:55 3.9 °C 3.7 °C 1025.3 hPa Calm   3.2 km/h 99 % 0.0 mm 19 W/m2
08:00 3.8 °C 3.7 °C 1025.3 hPa ESE 1.6 km/h 4.8 km/h 99 % 0.0 mm 18 W/m2
08:05 3.9 °C 3.8 °C 1025.3 hPa ESE 1.6 km/h 6.4 km/h 99 % 0.0 mm 19 W/m2
08:10 3.8 °C 3.7 °C 1025.3 hPa Calm   6.4 km/h 99 % 0.0 mm 21 W/m2
08:15 3.9 °C 3.8 °C 1025.3 hPa Calm   4.8 km/h 99 % 0.0 mm 25 W/m2
08:20 4.1 °C 3.9 °C 1025.6 hPa Calm   3.2 km/h 99 % 0.0 mm 26 W/m2
08:25 4.2 °C 4.1 °C 1025.6 hPa Calm   3.2 km/h 99 % 0.0 mm 28 W/m2
08:30 4.3 °C 4.2 °C 1025.6 hPa ESE 3.2 km/h 3.2 km/h 99 % 0.0 mm 30 W/m2
08:35 4.4 °C 4.3 °C 1025.6 hPa Calm   4.8 km/h 99 % 0.0 mm 32 W/m2
08:40 4.7 °C 4.5 °C 1025.6 hPa Calm   4.8 km/h 99 % 0.0 mm 33 W/m2
08:45 4.9 °C 4.7 °C 1025.6 hPa Calm   3.2 km/h 99 % 0.0 mm 35 W/m2
08:50 5.3 °C 5.1 °C 1025.6 hPa Calm   3.2 km/h 99 % 0.0 mm 35 W/m2
08:55 5.6 °C 5.4 °C 1025.6 hPa ESE 3.2 km/h 3.2 km/h 99 % 0.0 mm 37 W/m2
09:00 5.8 °C 5.7 °C 1025.6 hPa Calm   3.2 km/h 99 % 0.0 mm 37 W/m2
09:05 6.2 °C 6.0 °C 1025.6 hPa Calm   3.2 km/h 99 % 0.0 mm 39 W/m2
09:10 6.3 °C 6.1 °C 1025.6 hPa ESE 1.6 km/h 4.8 km/h 99 % 0.0 mm 39 W/m2
09:15 6.5 °C 6.4 °C 1025.6 hPa Calm   4.8 km/h 99 % 0.0 mm 40 W/m2
09:20 6.8 °C 6.8 °C 1025.6 hPa ESE 3.2 km/h 4.8 km/h 100 % 0.0 mm 40 W/m2
09:25 7.1 °C 6.9 °C 1025.6 hPa ESE 4.8 km/h 4.8 km/h 99 % 0.0 mm 42 W/m2
09:30 7.3 °C 7.1 °C 1025.6 hPa Calm   4.8 km/h 99 % 0.0 mm 42 W/m2
09:35 7.6 °C 7.5 °C 1025.3 hPa Calm   4.8 km/h 99 % 0.0 mm 44 W/m2
09:40 7.9 °C 7.7 °C 1025.6 hPa Calm   4.8 km/h 99 % 0.0 mm 202 W/m2
09:45 8.1 °C 8.1 °C 1025.6 hPa Calm   4.8 km/h 100 % 0.0 mm 330 W/m2
09:50 8.4 °C 8.4 °C 1025.6 hPa ESE 3.2 km/h 4.8 km/h 100 % 0.0 mm 343 W/m2
09:55 8.8 °C 8.8 °C 1025.6 hPa ESE 4.8 km/h 4.8 km/h 100 % 0.0 mm 357 W/m2
10:00 9.4 °C 9.4 °C 1025.6 hPa ESE 3.2 km/h 4.8 km/h 100 % 0.0 mm 369 W/m2
10:05 9.7 °C 9.7 °C 1025.6 hPa East 1.6 km/h 8.0 km/h 100 % 0.0 mm 383 W/m2
10:10 9.9 °C 9.9 °C 1025.6 hPa ESE 3.2 km/h 8.0 km/h 100 % 0.0 mm 394 W/m2
10:15 10.3 °C 10.3 °C 1025.6 hPa ESE 4.8 km/h 8.0 km/h 100 % 0.0 mm 408 W/m2
10:20 10.7 °C 10.7 °C 1025.6 hPa ENE 1.6 km/h 8.0 km/h 100 % 0.0 mm 397 W/m2
10:25 11.0 °C 11.0 °C 1025.6 hPa East 3.2 km/h 6.4 km/h 100 % 0.0 mm 432 W/m2
10:35 11.6 °C 11.3 °C 1025.6 hPa East 4.8 km/h 8.0 km/h 98 % 0.0 mm 457 W/m2
10:40 12.1 °C 11.6 °C 1025.6 hPa ENE 3.2 km/h 8.0 km/h 97 % 0.0 mm 468 W/m2
10:45 12.3 °C 11.7 °C 1025.3 hPa East 3.2 km/h 8.0 km/h 96 % 0.0 mm 483 W/m2
10:50 12.8 °C 12.1 °C 1025.6 hPa East 3.2 km/h 8.0 km/h 95 % 0.0 mm 496 W/m2
10:55 13.0 °C 11.7 °C 1025.3 hPa East 1.6 km/h 8.0 km/h 92 % 0.0 mm 494 W/m2
11:00 13.3 °C 11.7 °C 1025.3 hPa East 1.6 km/h 8.0 km/h 90 % 0.0 mm 475 W/m2
11:10 14.2 °C 12.0 °C 1025.3 hPa SSE 3.2 km/h 12.9 km/h 87 % 0.0 mm 536 W/m2
11:15 14.4 °C 12.1 °C 1024.9 hPa ESE 1.6 km/h 12.9 km/h 86 % 0.0 mm 548 W/m2
11:20 14.8 °C 12.2 °C 1024.9 hPa Calm   9.7 km/h 84 % 0.0 mm 554 W/m2
11:25 15.0 °C 12.0 °C 1024.6 hPa ESE 8.0 km/h 12.9 km/h 82 % 0.0 mm 563 W/m2
11:30 15.3 °C 12.0 °C 1024.6 hPa ESE 4.8 km/h 12.9 km/h 81 % 0.0 mm 571 W/m2
11:35 15.4 °C 11.6 °C 1024.6 hPa SE 14.5 km/h 16.1 km/h 78 % 0.0 mm 571 W/m2
11:40 15.6 °C 11.2 °C 1024.6 hPa SSE 8.0 km/h 16.1 km/h 75 % 0.0 mm 587 W/m2
11:45 15.7 °C 11.3 °C 1024.6 hPa South 6.4 km/h 14.5 km/h 75 % 0.0 mm 594 W/m2
11:50 15.8 °C 11.4 °C 1024.6 hPa SSE 4.8 km/h 16.1 km/h 75 % 0.0 mm 598 W/m2
12:00 16.3 °C 10.8 °C 1024.6 hPa SE 11.3 km/h 17.7 km/h 70 % 0.0 mm 589 W/m2
12:10 16.4 °C 11.1 °C 1024.3 hPa SSW 9.7 km/h 19.3 km/h 71 % 0.0 mm 613 W/m2
12:15 16.7 °C 11.4 °C 1024.3 hPa SSE 14.5 km/h 20.9 km/h 71 % 0.0 mm 633 W/m2
12:20 16.6 °C 10.6 °C 1024.3 hPa SSE 14.5 km/h 20.9 km/h 68 % 0.0 mm 673 W/m2
12:25 16.9 °C 11.2 °C 1024.3 hPa SSE 8.0 km/h 19.3 km/h 69 % 0.0 mm 585 W/m2
12:30 16.9 °C 11.0 °C 1024.3 hPa South 4.8 km/h 16.1 km/h 68 % 0.0 mm 229 W/m2
12:35 16.1 °C 10.4 °C 1024.3 hPa South 4.8 km/h 19.3 km/h 69 % 0.0 mm 225 W/m2
12:40 16.4 °C 10.9 °C 1023.9 hPa SSE 4.8 km/h 19.3 km/h 70 % 0.0 mm 390 W/m2
12:45 16.7 °C 11.2 °C 1024.3 hPa SE 8.0 km/h 17.7 km/h 70 % 0.0 mm 390 W/m2
12:50 16.9 °C 11.6 °C 1024.3 hPa SE 4.8 km/h 16.1 km/h 71 % 0.0 mm 675 W/m2
12:55 17.4 °C 12.3 °C 1024.3 hPa SE 4.8 km/h 16.1 km/h 72 % 0.0 mm 673 W/m2
13:00 17.8 °C 12.0 °C 1023.9 hPa ESE 11.3 km/h 16.1 km/h 69 % 0.0 mm 729 W/m2
13:05 17.4 °C 11.2 °C 1024.3 hPa SSE 4.8 km/h 16.1 km/h 67 % 0.0 mm 209 W/m2
13:10 16.7 °C 10.7 °C 1024.3 hPa South 4.8 km/h 14.5 km/h 68 % 0.0 mm 264 W/m2
13:15 16.3 °C 10.8 °C 1023.9 hPa Calm   11.3 km/h 70 % 0.0 mm 258 W/m2
13:20 16.4 °C 11.1 °C 1023.9 hPa SE 6.4 km/h 12.9 km/h 71 % 0.0 mm 304 W/m2
13:25 16.9 °C 11.6 °C 1023.9 hPa South 4.8 km/h 12.9 km/h 71 % 0.0 mm 844 W/m2
13:30 17.3 °C 11.1 °C 1023.6 hPa SE 9.7 km/h 22.5 km/h 67 % 0.0 mm 849 W/m2
13:40 17.8 °C 11.8 °C 1023.6 hPa SE 9.7 km/h 16.1 km/h 68 % 0.0 mm 631 W/m2
13:45 18.2 °C 12.0 °C 1023.6 hPa SE 8.0 km/h 20.9 km/h 67 % 0.0 mm 802 W/m2
13:50 17.7 °C 11.0 °C 1023.6 hPa SE 1.6 km/h 20.9 km/h 65 % 0.0 mm 343 W/m2
13:55 17.7 °C 11.9 °C 1023.2 hPa East 4.8 km/h 14.5 km/h 69 % 0.0 mm 417 W/m2
14:00 17.9 °C 11.7 °C 1023.6 hPa WNW 3.2 km/h 11.3 km/h 67 % 0.0 mm 547 W/m2
14:10 16.7 °C 11.2 °C 1023.2 hPa SW 3.2 km/h 9.7 km/h 70 % 0.0 mm 721 W/m2
14:15 16.6 °C 11.5 °C 1023.2 hPa WSW 11.3 km/h 11.3 km/h 72 % 0.0 mm 482 W/m2
14:20 16.4 °C 11.3 °C 1023.6 hPa NW 8.0 km/h 12.9 km/h 72 % 0.0 mm 397 W/m2
14:25 16.2 °C 11.5 °C 1023.2 hPa West 8.0 km/h 12.9 km/h 74 % 0.0 mm 439 W/m2
14:30 16.2 °C 11.8 °C 1023.2 hPa WNW 9.7 km/h 14.5 km/h 75 % 0.0 mm 830 W/m2
14:35 16.1 °C 11.3 °C 1023.2 hPa WNW 11.3 km/h 14.5 km/h 73 % 0.0 mm 450 W/m2
14:40 15.8 °C 11.6 °C 1023.2 hPa WSW 6.4 km/h 14.5 km/h 76 % 0.0 mm 343 W/m2
14:45 16.3 °C 11.6 °C 1023.2 hPa West 6.4 km/h 14.5 km/h 74 % 0.0 mm 867 W/m2
14:50 16.0 °C 11.0 °C 1022.9 hPa West 8.0 km/h 12.9 km/h 72 % 0.0 mm 332 W/m2
14:55 15.7 °C 10.8 °C 1022.9 hPa WNW 8.0 km/h 12.9 km/h 73 % 0.0 mm 406 W/m2
15:00 15.8 °C 11.2 °C 1022.9 hPa West 8.0 km/h 12.9 km/h 74 % 0.0 mm 582 W/m2
15:05 16.4 °C 11.6 °C 1022.6 hPa WNW 6.4 km/h 12.9 km/h 73 % 0.0 mm 601 W/m2
15:10 16.7 °C 12.1 °C 1022.6 hPa SSW 4.8 km/h 9.7 km/h 74 % 0.0 mm 450 W/m2
15:15 16.7 °C 11.4 °C 1022.6 hPa WNW 4.8 km/h 9.7 km/h 71 % 0.0 mm 601 W/m2
15:20 16.7 °C 11.2 °C 1022.6 hPa WSW 1.6 km/h 9.7 km/h 70 % 0.3 mm 621 W/m2
15:30 16.8 °C 10.6 °C 1022.6 hPa WNW 9.7 km/h 12.9 km/h 67 % 0.3 mm 515 W/m2
15:35 16.1 °C 10.8 °C 1022.2 hPa WNW 4.8 km/h 11.3 km/h 71 % 0.3 mm 88 W/m2
15:40 15.7 °C 10.7 °C 1022.2 hPa West 6.4 km/h 9.7 km/h 72 % 0.3 mm 355 W/m2
15:45 15.8 °C 10.9 °C 1022.2 hPa WNW 6.4 km/h 9.7 km/h 73 % 0.3 mm 378 W/m2
15:50 16.0 °C 11.0 °C 1021.9 hPa NW 3.2 km/h 9.7 km/h 72 % 0.3 mm 390 W/m2
15:55 16.3 °C 11.3 °C 1021.9 hPa WNW 3.2 km/h 8.0 km/h 72 % 0.3 mm 464 W/m2
16:00 16.6 °C 11.1 °C 1021.9 hPa WNW 6.4 km/h 8.0 km/h 70 % 0.3 mm 397 W/m2
16:05 16.5 °C 10.8 °C 1021.9 hPa WSW 3.2 km/h 8.0 km/h 69 % 0.3 mm 394 W/m2
16:10 16.3 °C 11.1 °C 1021.9 hPa West 4.8 km/h 9.7 km/h 71 % 0.3 mm 332 W/m2
16:15 16.2 °C 11.1 °C 1021.9 hPa WNW 3.2 km/h 9.7 km/h 72 % 0.3 mm 323 W/m2
16:20 16.1 °C 10.8 °C 1021.9 hPa West 4.8 km/h 8.0 km/h 71 % 0.0 mm 156 W/m2
16:25 15.5 °C 10.3 °C 1021.9 hPa WNW 3.2 km/h 11.3 km/h 71 % 0.0 mm 151 W/m2
16:30 15.2 °C 10.2 °C 1021.9 hPa West 3.2 km/h 11.3 km/h 72 % 0.0 mm 388 W/m2
16:40 15.9 °C 10.9 °C 1021.6 hPa WNW 6.4 km/h 8.0 km/h 72 % 0.0 mm 343 W/m2
16:45 15.8 °C 10.4 °C 1021.6 hPa West 6.4 km/h 9.7 km/h 70 % 0.0 mm 281 W/m2
16:50 15.5 °C 10.7 °C 1021.6 hPa Calm   9.7 km/h 73 % 0.0 mm 81 W/m2
16:55 15.3 °C 10.5 °C 1021.6 hPa WNW 3.2 km/h 6.4 km/h 73 % 0.0 mm 102 W/m2
17:00 15.2 °C 10.4 °C 1021.6 hPa WNW 3.2 km/h 6.4 km/h 73 % 0.0 mm 107 W/m2
17:05 15.2 °C 10.8 °C 1021.6 hPa West 3.2 km/h 6.4 km/h 75 % 0.0 mm 178 W/m2
17:10 15.3 °C 10.9 °C 1021.6 hPa West 1.6 km/h 6.4 km/h 75 % 0.0 mm 123 W/m2
17:15 15.3 °C 11.1 °C 1021.6 hPa WNW 4.8 km/h 6.4 km/h 76 % 0.0 mm 114 W/m2
17:20 15.1 °C 11.1 °C 1021.6 hPa WNW 4.8 km/h 6.4 km/h 77 % 0.0 mm 125 W/m2
17:25 14.8 °C 10.6 °C 1021.6 hPa WNW 1.6 km/h 6.4 km/h 76 % 0.0 mm 120 W/m2
17:30 14.9 °C 10.9 °C 1021.6 hPa Calm   6.4 km/h 77 % 0.0 mm 165 W/m2
17:40 14.9 °C 10.3 °C 1021.6 hPa West 4.8 km/h 8.0 km/h 74 % 0.0 mm 91 W/m2
17:45 14.7 °C 10.3 °C 1021.6 hPa West 4.8 km/h 8.0 km/h 75 % 0.0 mm 81 W/m2
17:50 14.6 °C 10.2 °C 1021.6 hPa West 3.2 km/h 8.0 km/h 75 % 0.0 mm 67 W/m2
17:55 14.5 °C 10.3 °C 1021.6 hPa West 1.6 km/h 8.0 km/h 76 % 0.0 mm 79 W/m2
18:00 14.4 °C 10.1 °C 1021.6 hPa West 1.6 km/h 6.4 km/h 75 % 0.0 mm 83 W/m2
18:05 14.4 °C 9.9 °C 1021.6 hPa West 1.6 km/h 6.4 km/h 74 % 0.0 mm 77 W/m2
18:10 14.4 °C 9.8 °C 1021.6 hPa West 3.2 km/h 6.4 km/h 74 % 0.0 mm 63 W/m2
18:15 14.3 °C 10.0 °C 1021.6 hPa West 1.6 km/h 4.8 km/h 75 % 0.0 mm 40 W/m2
18:20 14.2 °C 9.9 °C 1021.6 hPa Calm   4.8 km/h 75 % 0.0 mm 33 W/m2
18:25 13.8 °C 9.9 °C 1021.2 hPa Calm   1.6 km/h 77 % 0.0 mm 32 W/m2
18:30 13.6 °C 10.0 °C 1021.2 hPa Calm     79 % 0.0 mm 33 W/m2
18:35 13.0 °C 10.0 °C 1021.2 hPa Calm     82 % 0.0 mm 32 W/m2
18:40 12.7 °C 9.9 °C 1021.2 hPa Calm   1.6 km/h 83 % 0.0 mm 25 W/m2
18:45 12.6 °C 9.8 °C 1021.2 hPa Calm   1.6 km/h 83 % 0.0 mm 21 W/m2
18:50 12.6 °C 9.9 °C 1021.2 hPa Calm   1.6 km/h 84 % 0.0 mm 16 W/m2
18:55 12.3 °C 9.7 °C 1021.2 hPa Calm   1.6 km/h 84 % 0.0 mm 12 W/m2
19:00 12.0 °C 9.7 °C 1021.2 hPa Calm     86 % 0.0 mm 7 W/m2
19:05 11.9 °C 9.6 °C 1021.2 hPa Calm   1.6 km/h 86 % 0.0 mm 0 W/m2
19:10 11.6 °C 9.5 °C 1021.2 hPa Calm   1.6 km/h 87 % 0.0 mm 0 W/m2
19:15 11.3 °C 9.4 °C 1021.2 hPa Calm     88 % 0.0 mm 0 W/m2
19:20 10.8 °C 9.1 °C 1021.2 hPa Calm     89 % 0.0 mm 0 W/m2
19:25 10.6 °C 8.9 °C 1021.2 hPa Calm   1.6 km/h 89 % 0.0 mm 0 W/m2
19:30 10.3 °C 8.8 °C 1021.6 hPa Calm   1.6 km/h 90 % 0.0 mm 0 W/m2
19:35 10.0 °C 8.6 °C 1021.2 hPa Calm   1.6 km/h 91 % 0.0 mm 0 W/m2
19:40 9.8 °C 8.4 °C 1021.6 hPa Calm     91 % 0.0 mm 0 W/m2
19:45 9.7 °C 8.4 °C 1021.6 hPa Calm     92 % 0.0 mm 0 W/m2
19:50 9.6 °C 8.3 °C 1021.6 hPa Calm     92 % 0.0 mm 0 W/m2
19:55 9.5 °C 8.3 °C 1021.6 hPa Calm     92 % 0.0 mm 0 W/m2
20:00 9.3 °C 8.3 °C 1021.6 hPa Calm     93 % 0.0 mm 0 W/m2
20:05 9.2 °C 8.1 °C 1021.6 hPa Calm     93 % 0.0 mm 0 W/m2
20:10 9.3 °C 8.4 °C 1021.6 hPa Calm     94 % 0.0 mm 0 W/m2
20:15 9.4 °C 8.5 °C 1021.2 hPa Calm   1.6 km/h 94 % 0.0 mm 0 W/m2
20:20 9.7 °C 8.7 °C 1021.2 hPa Calm   1.6 km/h 94 % 0.0 mm 0 W/m2
20:25 9.6 °C 8.5 °C 1021.2 hPa Calm   1.6 km/h 93 % 0.0 mm 0 W/m2
20:30 9.2 °C 8.1 °C 1021.2 hPa Calm     93 % 0.0 mm 0 W/m2
20:35 8.9 °C 7.8 °C 1021.2 hPa Calm     93 % 0.0 mm 0 W/m2
20:40 9.1 °C 8.3 °C 1021.2 hPa Calm     95 % 0.0 mm 0 W/m2
20:45 9.2 °C 8.3 °C 1020.9 hPa Calm     94 % 0.0 mm 0 W/m2
20:50 9.1 °C 8.2 °C 1020.9 hPa Calm     94 % 0.0 mm 0 W/m2
20:55 9.0 °C 8.1 °C 1020.9 hPa Calm     94 % 0.0 mm 0 W/m2
21:00 9.0 °C 8.1 °C 1020.9 hPa Calm   1.6 km/h 94 % 0.0 mm 0 W/m2
21:05 9.1 °C 8.2 °C 1020.9 hPa Calm   3.2 km/h 94 % 0.0 mm 0 W/m2
21:10 8.8 °C 7.9 °C 1020.9 hPa Calm   3.2 km/h 94 % 0.0 mm 0 W/m2
21:15 8.9 °C 8.0 °C 1020.9 hPa Calm   3.2 km/h 94 % 0.0 mm 0 W/m2
21:20 8.9 °C 8.0 °C 1020.9 hPa Calm   3.2 km/h 94 % 0.0 mm 0 W/m2
21:25 8.7 °C 7.8 °C 1020.5 hPa Calm   3.2 km/h 94 % 0.0 mm 0 W/m2
21:30 8.8 °C 7.9 °C 1020.5 hPa Calm   3.2 km/h 94 % 0.0 mm 0 W/m2
21:35 8.7 °C 7.8 °C 1020.5 hPa WSW 1.6 km/h 1.6 km/h 94 % 0.0 mm 0 W/m2
21:40 8.6 °C 7.6 °C 1020.5 hPa Calm   3.2 km/h 94 % 0.0 mm 0 W/m2
21:45 8.3 °C 7.4 °C 1020.5 hPa Calm   3.2 km/h 94 % 0.0 mm 0 W/m2
21:50 8.2 °C 7.3 °C 1020.5 hPa Calm     94 % 0.0 mm 0 W/m2
21:55 8.1 °C 7.1 °C 1020.5 hPa Calm     94 % 0.0 mm 0 W/m2
22:00 7.9 °C 7.2 °C 1020.5 hPa Calm     95 % 0.0 mm 0 W/m2
22:05 7.7 °C 7.0 °C 1020.5 hPa Calm     95 % 0.0 mm 0 W/m2
22:10 7.8 °C 7.2 °C 1020.5 hPa Calm     96 % 0.0 mm 0 W/m2
22:15 7.9 °C 7.2 °C 1020.2 hPa Calm     95 % 0.0 mm 0 W/m2
22:20 7.7 °C 6.9 °C 1020.2 hPa Calm     95 % 0.0 mm 0 W/m2
22:25 7.8 °C 7.2 °C 1020.2 hPa Calm     96 % 0.0 mm 0 W/m2
22:30 7.8 °C 7.2 °C 1020.2 hPa Calm   1.6 km/h 96 % 0.0 mm 0 W/m2
22:35 7.8 °C 7.2 °C 1020.2 hPa Calm   1.6 km/h 96 % 0.0 mm 0 W/m2
22:40 7.8 °C 7.2 °C 1019.9 hPa Calm   1.6 km/h 96 % 0.0 mm 0 W/m2
22:45 7.8 °C 7.2 °C 1020.2 hPa Calm   1.6 km/h 96 % 0.0 mm 0 W/m2
22:50 7.8 °C 7.2 °C 1020.2 hPa WSW 1.6 km/h 1.6 km/h 96 % 0.0 mm 0 W/m2
22:55 7.9 °C 7.3 °C 1019.9 hPa WSW 4.8 km/h 4.8 km/h 96 % 0.0 mm 0 W/m2
23:00 7.9 °C 7.3 °C 1019.9 hPa Calm   4.8 km/h 96 % 0.0 mm 0 W/m2
23:05 8.1 °C 7.5 °C 1019.9 hPa WSW 1.6 km/h 4.8 km/h 96 % 0.0 mm 0 W/m2
23:10 8.2 °C 7.6 °C 1019.9 hPa SSW 1.6 km/h 4.8 km/h 96 % 0.0 mm 0 W/m2
23:15 8.1 °C 7.5 °C 1019.9 hPa Calm   4.8 km/h 96 % 0.0 mm 0 W/m2
23:20 7.8 °C 7.2 °C 1020.2 hPa Calm   3.2 km/h 96 % 0.0 mm 0 W/m2
23:25 7.2 °C 6.5 °C 1020.2 hPa Calm   3.2 km/h 95 % 0.0 mm 0 W/m2
23:30 7.1 °C 6.5 °C 1020.2 hPa Calm   1.6 km/h 96 % 0.0 mm 0 W/m2
23:35 7.3 °C 6.7 °C 1020.2 hPa Calm   3.2 km/h 96 % 0.0 mm 0 W/m2
23:40 7.8 °C 7.4 °C 1020.2 hPa SSE 3.2 km/h 4.8 km/h 97 % 0.0 mm 0 W/m2
23:45 8.3 °C 7.8 °C 1020.2 hPa SSE 4.8 km/h 6.4 km/h 97 % 0.0 mm 0 W/m2
23:50 8.6 °C 8.1 °C 1020.2 hPa SSE 4.8 km/h 6.4 km/h 97 % 0.0 mm 0 W/m2
23:55 8.8 °C 8.4 °C 1020.2 hPa SSE 3.2 km/h 6.4 km/h 97 % 0.0 mm 0 W/m2
Avec l'autorisation de Weather Underground - 1.75 mb